Terminal Aerodrome Forecast
Issued by NWS Newport/Morehead City, NC

Home | Current Version | Previous Version | Text Only | Print | Product List | Glossary Off
Versions: 1 2 3 4 5 6 7 8 9 10 11 12 13 14 15 16 17 18 19

121
FTUS42 KMHX 221735
TAFEWN
TAF
KEWN 221735Z 2218/2318 21011G18KT P6SM VCSH SCT025 BKN040
      TEMPO 2220/2222 5SM -TSRA BKN025CB
     FM230300 21005KT 6SM -SHRA SCT015 BKN040
     FM230900 21005KT 5SM SHRA SCT015 OVC030
     FM231500 19011G20KT 5SM SHRA VCTS OVC025CB=

USA.gov is the U.S. government's official web portal to all federal, state and local government web resources and services.